Time;durP1;ratioP1;P1;durP2;ratioP2;P2;SDS_P1;SDS_P2;PMS_P1;PMS_P2;Temp;Humidity;BMP_temperature;BMP_pressure;BME280_temperature;BME280_humidity;BME280_pressure;Samples;Min_cycle;Max_cycle;Signal;HPM_P1;HPM_P2
2021/04/16 00:02:08;;;;;;;7.25;6.20;;;3.20;99.90;;;;;;5144799;22;20319;-73
2021/04/16 00:04:45;;;;;;;10.10;6.63;;;3.50;99.90;;;;;;5072838;28;20535;-75
2021/04/16 00:07:22;;;;;;;9.27;6.45;;;3.40;99.90;;;;;;5056970;22;21360;-75
2021/04/16 00:10:00;;;;;;;8.45;6.65;;;3.40;99.90;;;;;;5081739;28;20507;-75
2021/04/16 00:12:39;;;;;;;8.65;7.35;;;3.30;99.90;;;;;;5066466;22;20501;-74
2021/04/16 00:15:19;;;;;;;9.70;7.38;;;3.40;99.90;;;;;;5135872;27;20569;-75
2021/04/16 00:17:57;;;;;;;12.60;6.15;;;3.40;99.90;;;;;;5058723;22;20949;-71
2021/04/16 00:20:38;;;;;;;11.52;6.60;;;3.40;99.90;;;;;;5110715;27;20510;-70
2021/04/16 00:23:17;;;;;;;8.07;7.35;;;3.40;99.90;;;;;;5121231;22;20575;-75
2021/04/16 00:26:08;;;;;;;8.20;6.00;;;3.00;99.90;;;;;;5118961;27;791231;-75
2021/04/16 00:28:45;;;;;;;10.18;6.45;;;3.30;99.90;;;;;;5108228;22;20619;-75
2021/04/16 00:31:26;;;;;;;8.82;6.35;;;3.30;99.90;;;;;;5108025;27;20534;-74
2021/04/16 00:34:04;;;;;;;9.30;6.72;;;3.30;99.90;;;;;;5059797;22;20666;-74
2021/04/16 00:36:43;;;;;;;7.63;6.15;;;3.30;99.90;;;;;;5091676;27;20539;-74
2021/04/16 00:39:24;;;;;;;8.63;5.85;;;2.90;99.90;;;;;;5191681;27;20538;-80
2021/04/16 00:42:09;;;;;;;9.07;6.13;;;3.20;99.90;;;;;;5077077;28;20533;-71
2021/04/16 00:44:46;;;;;;;7.70;5.55;;;3.20;99.90;;;;;;5117831;27;20529;-75
2021/04/16 00:47:27;;;;;;;7.63;6.00;;;3.20;99.90;;;;;;5076724;22;20672;-71
2021/04/16 00:50:13;;;;;;;12.20;6.10;;;3.20;99.90;;;;;;5068189;28;20525;-71
2021/04/16 00:52:54;;;;;;;6.35;5.70;;;3.20;99.90;;;;;;5100106;22;20486;-76
2021/04/16 00:56:11;;;;;;;8.63;5.18;;;3.20;99.90;;;;;;5106865;27;20281;-76
2021/04/16 00:58:50;;;;;;;8.10;6.18;;;3.20;99.90;;;;;;5105941;22;20323;-74
2021/04/16 01:01:28;;;;;;;7.30;5.93;;;3.30;99.90;;;;;;5110745;27;20271;-74
2021/04/16 01:04:07;;;;;;;9.10;5.35;;;3.20;99.90;;;;;;5118296;22;20996;-74
2021/04/16 01:06:46;;;;;;;6.60;5.55;;;3.30;99.90;;;;;;5172512;27;20269;-74
2021/04/16 01:09:27;;;;;;;7.45;6.18;;;3.40;99.90;;;;;;5066828;22;20585;-71
2021/04/16 01:12:09;;;;;;;7.07;5.65;;;3.40;99.90;;;;;;5076340;28;20517;-71
2021/04/16 01:14:50;;;;;;;6.70;5.80;;;3.50;99.90;;;;;;5129444;22;20315;-75
2021/04/16 01:17:28;;;;;;;8.10;6.07;;;3.80;99.90;;;;;;5127723;27;20521;-76
2021/04/16 01:20:24;;;;;;;7.65;6.28;;;3.70;99.90;;;;;;5113747;22;20694;-75
2021/04/16 01:23:24;;;;;;;11.48;6.60;;;3.80;99.90;;;;;;5067544;28;21033;-75
2021/04/16 01:26:04;;;;;;;6.97;6.13;;;3.80;99.90;;;;;;5160080;27;20808;-76
2021/04/16 01:28:41;;;;;;;6.70;5.85;;;3.90;99.90;;;;;;5114475;22;20502;-76
2021/04/16 01:31:21;;;;;;;7.38;6.68;;;4.00;99.90;;;;;;5066646;28;20540;-75
2021/04/16 01:33:59;;;;;;;7.80;6.30;;;3.70;99.90;;;;;;5112561;22;20582;-74
2021/04/16 01:36:35;;;;;;;6.27;5.67;;;4.10;99.90;;;;;;5121796;27;783759;-75
2021/04/16 01:39:13;;;;;;;6.60;5.95;;;4.10;99.90;;;;;;5076160;22;22467;-73
2021/04/16 01:41:49;;;;;;;6.45;5.40;;;4.10;99.90;;;;;;5077456;28;20529;-74
2021/04/16 01:44:30;;;;;;;8.02;6.50;;;4.10;99.90;;;;;;5067121;22;20574;-75
2021/04/16 01:47:11;;;;;;;8.60;5.63;;;4.00;99.90;;;;;;5074501;28;20522;-76
2021/04/16 01:49:51;;;;;;;7.43;6.60;;;4.10;99.90;;;;;;5096743;22;20318;-74
2021/04/16 01:52:30;;;;;;;9.18;6.68;;;4.10;99.90;;;;;;5070163;28;20500;-74
2021/04/16 01:55:11;;;;;;;6.30;5.70;;;4.20;99.90;;;;;;5108283;22;20334;-72
2021/04/16 01:57:49;;;;;;;6.90;6.30;;;4.20;99.90;;;;;;5068335;28;20876;-72
2021/04/16 02:00:35;;;;;;;8.95;6.30;;;4.20;99.90;;;;;;5057749;22;20583;-76
2021/04/16 02:03:14;;;;;;;6.43;5.82;;;4.30;99.90;;;;;;5158252;27;20304;-76
2021/04/16 02:05:52;;;;;;;6.43;5.75;;;4.30;99.90;;;;;;5101227;22;20591;-71
2021/04/16 02:08:31;;;;;;;8.02;5.95;;;4.40;99.90;;;;;;5153872;27;20272;-71
2021/04/16 02:11:09;;;;;;;7.30;5.72;;;4.40;99.90;;;;;;5107027;22;20586;-75
2021/04/16 02:13:46;;;;;;;11.25;6.88;;;4.40;99.90;;;;;;5121682;27;20539;-75
2021/04/16 02:16:23;;;;;;;7.68;5.40;;;4.50;99.90;;;;;;5102652;22;20578;-72
2021/04/16 02:19:05;;;;;;;6.65;5.40;;;4.50;99.90;;;;;;5157028;27;20271;-71
2021/04/16 02:21:45;;;;;;;8.43;6.35;;;4.50;99.90;;;;;;5132619;22;20314;-75
2021/04/16 02:24:24;;;;;;;6.70;5.18;;;4.50;99.90;;;;;;5096076;27;20284;-74
2021/04/16 02:27:04;;;;;;;6.55;5.93;;;4.50;99.90;;;;;;5118922;22;20317;-75
2021/04/16 02:29:43;;;;;;;7.32;5.30;;;4.50;99.90;;;;;;5076722;28;20544;-74
2021/04/16 02:32:24;;;;;;;7.15;6.10;;;4.50;99.90;;;;;;5101822;22;20570;-75
2021/04/16 02:35:01;;;;;;;11.68;6.03;;;4.40;99.90;;;;;;5057405;28;20534;-75
2021/04/16 02:37:39;;;;;;;12.18;6.15;;;4.40;99.90;;;;;;5078723;27;20589;-80
2021/04/16 02:40:30;;;;;;;7.80;6.20;;;4.50;99.90;;;;;;5164307;27;20293;-75
2021/04/16 02:43:07;;;;;;;8.50;6.15;;;4.50;99.90;;;;;;5110595;27;20536;-75
2021/04/16 02:45:45;;;;;;;7.35;5.60;;;4.50;99.90;;;;;;5177546;22;20275;-74
2021/04/16 02:48:25;;;;;;;9.60;6.10;;;4.40;99.90;;;;;;5108716;27;791844;-74
2021/04/16 02:51:02;;;;;;;8.65;5.47;;;4.40;99.90;;;;;;5077858;22;20542;-71
2021/04/16 02:53:39;;;;;;;6.78;5.28;;;4.50;99.90;;;;;;5069715;28;20525;-72
2021/04/16 02:56:16;;;;;;;6.82;5.10;;;4.50;99.90;;;;;;5116200;22;20887;-74
2021/04/16 02:58:58;;;;;;;8.80;4.82;;;4.50;99.90;;;;;;5110396;27;20331;-75
2021/04/16 03:01:36;;;;;;;7.95;5.90;;;4.50;99.90;;;;;;5091378;22;22135;-75
2021/04/16 03:04:14;;;;;;;8.15;7.25;;;4.60;99.90;;;;;;5076543;28;20525;-74
2021/04/16 03:06:52;;;;;;;8.23;5.97;;;4.60;99.90;;;;;;5153088;22;20334;-76
2021/04/16 03:09:30;;;;;;;7.22;5.22;;;4.60;99.90;;;;;;5116922;27;20574;-75
2021/04/16 03:12:06;;;;;;;7.40;5.45;;;4.60;99.90;;;;;;5107627;22;805441;-73
2021/04/16 03:14:43;;;;;;;7.80;5.35;;;4.60;99.90;;;;;;5067114;28;20524;-73
2021/04/16 03:17:23;;;;;;;7.68;5.30;;;4.60;99.90;;;;;;5117280;22;20574;-72
2021/04/16 03:20:02;;;;;;;8.13;5.30;;;4.70;99.90;;;;;;5106941;27;20480;-71
2021/04/16 03:22:39;;;;;;;6.03;5.15;;;4.70;99.90;;;;;;5103241;22;20325;-75
2021/04/16 03:25:19;;;;;;;6.95;5.43;;;4.70;99.90;;;;;;5109089;27;20275;-75
2021/04/16 03:27:57;;;;;;;6.00;4.93;;;4.70;99.90;;;;;;5079908;22;20321;-71
2021/04/16 03:30:35;;;;;;;7.57;5.25;;;4.80;99.90;;;;;;5125728;27;20564;-71
2021/04/16 03:33:14;;;;;;;6.78;5.53;;;4.80;99.90;;;;;;5107221;22;20317;-71
2021/04/16 03:38:24;;;;;;;7.22;5.93;;;4.80;99.90;;;;;;5108119;22;20640;-72
2021/04/16 03:41:01;;;;;;;7.00;5.65;;;4.70;99.90;;;;;;5157668;27;20268;-71
2021/04/16 03:43:40;;;;;;;6.95;5.28;;;4.70;99.90;;;;;;5066239;22;21296;-74
2021/04/16 03:46:17;;;;;;;7.25;5.40;;;4.80;99.90;;;;;;5110555;27;21021;-74
2021/04/16 03:48:56;;;;;;;7.07;5.57;;;4.80;99.90;;;;;;5103654;22;20590;-76
2021/04/16 03:51:49;;;;;;;6.00;5.40;;;4.80;99.90;;;;;;5114984;27;795102;-76
2021/04/16 03:54:28;;;;;;;5.38;4.47;;;4.80;99.90;;;;;;5123754;22;20575;-75
2021/04/16 03:57:09;;;;;;;6.75;5.20;;;4.80;99.90;;;;;;5065672;28;20583;-75
2021/04/16 03:59:47;;;;;;;5.95;5.35;;;4.90;99.90;;;;;;5121884;22;20354;-74
2021/04/16 04:02:25;;;;;;;10.23;6.15;;;4.80;99.90;;;;;;5106161;27;20488;-74
2021/04/16 04:05:07;;;;;;;6.20;5.60;;;4.90;99.90;;;;;;5111167;27;20567;-80
2021/04/16 04:07:55;;;;;;;7.03;5.30;;;4.90;99.90;;;;;;5118188;27;20951;-76
2021/04/16 04:10:37;;;;;;;6.47;5.25;;;4.90;99.90;;;;;;5118295;27;20307;-75
2021/04/16 04:13:16;;;;;;;10.88;5.22;;;4.90;99.90;;;;;;5165978;22;20292;-71
2021/04/16 04:15:56;;;;;;;6.53;5.82;;;4.90;99.90;;;;;;5130364;27;20764;-71
2021/04/16 04:18:34;;;;;;;7.93;5.22;;;4.90;99.90;;;;;;5073823;22;20884;-75
2021/04/16 04:21:13;;;;;;;9.85;6.10;;;4.90;99.90;;;;;;5066965;28;20505;-74
2021/04/16 04:23:50;;;;;;;7.30;5.68;;;4.90;99.90;;;;;;5067020;22;20589;-73
2021/04/16 04:26:28;;;;;;;6.68;5.75;;;4.90;99.90;;;;;;5074159;28;20579;-72
2021/04/16 04:29:05;;;;;;;6.07;5.50;;;4.90;99.90;;;;;;5072777;22;21108;-76
2021/04/16 04:31:47;;;;;;;6.30;5.30;;;4.90;99.90;;;;;;5068122;28;20516;-77
2021/04/16 04:34:27;;;;;;;10.23;6.05;;;4.90;99.90;;;;;;5095024;22;20354;-74
2021/04/16 04:36:57;;;;;;;7.40;6.05;;;4.90;99.90;;;;;;5048478;28;20648;-74
2021/04/16 04:39:37;;;;;;;6.40;5.78;;;4.80;99.90;;;;;;5148098;22;20306;-77
2021/04/16 04:44:41;;;;;;;5.88;5.28;;;4.80;99.90;;;;;;5072839;22;20577;-76
2021/04/16 04:47:19;;;;;;;7.28;6.57;;;4.80;99.90;;;;;;5071662;28;20523;-75
2021/04/16 04:49:56;;;;;;;7.43;5.25;;;4.90;99.90;;;;;;5076554;22;20580;-73
2021/04/16 04:52:39;;;;;;;6.13;5.40;;;4.90;99.90;;;;;;5141766;27;20524;-74
2021/04/16 04:55:26;;;;;;;7.57;6.88;;;4.90;99.90;;;;;;5101698;22;20693;-74
2021/04/16 04:58:03;;;;;;;11.60;7.20;;;4.90;99.90;;;;;;5076017;28;20570;-74
2021/04/16 05:00:40;;;;;;;7.50;5.57;;;4.90;99.90;;;;;;5108046;22;20594;-76
2021/04/16 05:03:16;;;;;;;7.40;5.82;;;5.00;99.90;;;;;;5073474;28;20532;-75
2021/04/16 05:05:53;;;;;;;6.45;5.85;;;5.00;99.90;;;;;;5104382;22;20633;-73
2021/04/16 05:08:19;;;;;;;7.60;6.05;;;4.90;99.90;;;;;;5088235;28;20190;-74
2021/04/16 05:10:57;;;;;;;7.50;6.55;;;4.90;99.90;;;;;;5129314;22;20581;-76
2021/04/16 05:13:35;;;;;;;8.68;5.97;;;4.90;99.90;;;;;;5068206;28;20572;-75
2021/04/16 05:16:14;;;;;;;8.90;6.50;;;4.90;99.90;;;;;;5234103;22;20565;-77
2021/04/16 05:18:53;;;;;;;8.75;6.07;;;4.90;99.90;;;;;;5125601;27;20274;-77
2021/04/16 05:21:44;;;;;;;8.27;5.47;;;4.90;99.90;;;;;;5052968;22;20630;-77
2021/04/16 05:24:25;;;;;;;11.43;7.13;;;4.90;99.90;;;;;;5078268;27;20296;-74
2021/04/16 05:27:42;;;;;;;6.57;5.65;;;4.90;99.90;;;;;;5049653;27;20576;-75
2021/04/16 05:30:18;;;;;;;12.10;6.75;;;5.00;99.90;;;;;;5124415;22;20938;-77
2021/04/16 05:32:55;;;;;;;9.38;7.63;;;5.00;99.90;;;;;;5110720;27;20540;-76
2021/04/16 05:35:33;;;;;;;7.88;6.20;;;5.10;99.90;;;;;;5125578;22;20490;-76
2021/04/16 05:38:14;;;;;;;7.32;6.03;;;5.10;99.90;;;;;;5115039;27;20275;-76
2021/04/16 05:43:19;;;;;;;11.80;6.05;;;5.10;99.90;;;;;;5066416;28;20524;-75
2021/04/16 05:45:59;;;;;;;10.63;6.80;;;5.20;99.90;;;;;;5160682;22;20277;-75
2021/04/16 05:48:38;;;;;;;7.82;6.30;;;5.30;99.90;;;;;;5079062;28;20629;-75
2021/04/16 05:51:18;;;;;;;13.88;6.50;;;5.30;99.90;;;;;;5069063;22;20586;-78
2021/04/16 05:53:56;;;;;;;10.20;7.15;;;5.40;99.90;;;;;;5088339;27;20293;-78
2021/04/16 05:56:36;;;;;;;12.32;7.78;;;5.50;99.90;;;;;;5115783;22;20575;-74
2021/04/16 05:59:14;;;;;;;8.57;7.68;;;5.60;99.90;;;;;;5121552;27;20461;-72
2021/04/16 06:01:52;;;;;;;7.63;6.30;;;5.60;99.90;;;;;;5111539;22;20322;-72
2021/04/16 06:04:30;;;;;;;7.85;7.05;;;5.50;99.90;;;;;;5099067;27;21126;-75
2021/04/16 06:07:09;;;;;;;9.68;7.10;;;5.50;99.90;;;;;;5142044;22;20570;-75
2021/04/16 06:09:47;;;;;;;7.60;6.63;;;5.50;99.90;;;;;;5067180;28;20528;-74
2021/04/16 06:12:29;;;;;;;10.02;7.40;;;5.60;99.90;;;;;;5139357;22;20573;-72
2021/04/16 06:15:13;;;;;;;11.25;6.90;;;5.70;99.90;;;;;;5089817;27;21120;-72
2021/04/16 06:17:52;;;;;;;10.27;7.82;;;5.80;99.90;;;;;;5097796;22;20575;-75
2021/04/16 06:20:30;;;;;;;11.48;8.88;;;5.80;99.90;;;;;;5105999;27;20279;-75
2021/04/16 06:23:08;;;;;;;9.07;7.90;;;5.90;99.90;;;;;;5110616;22;20664;-76
2021/04/16 06:25:59;;;;;;;7.07;6.32;;;6.00;99.90;;;;;;5119479;27;20544;-74
2021/04/16 06:28:37;;;;;;;18.98;12.80;;;6.00;99.90;;;;;;5121404;22;20320;-75
2021/04/16 06:31:17;;;;;;;19.67;11.82;;;6.00;99.90;;;;;;5127879;27;20524;-75
2021/04/16 06:33:44;;;;;;;10.05;8.50;;;6.00;99.90;;;;;;5085210;22;20318;-74
2021/04/16 06:36:12;;;;;;;12.35;9.70;;;6.00;99.90;;;;;;5069446;28;20279;-75
2021/04/16 06:38:41;;;;;;;11.35;7.32;;;6.10;99.90;;;;;;5049838;22;20225;-76
2021/04/16 06:41:21;;;;;;;9.63;8.60;;;6.10;99.90;;;;;;5031843;28;20184;-76
2021/04/16 06:43:51;;;;;;;9.63;8.68;;;6.30;99.90;;;;;;5048949;23;20646;-72
2021/04/16 06:46:34;;;;;;;9.38;8.45;;;6.40;99.90;;;;;;5048785;28;20185;-72
2021/04/16 06:49:05;;;;;;;11.10;7.97;;;6.40;99.90;;;;;;5052065;23;20605;-80
2021/04/16 06:51:36;;;;;;;10.48;8.10;;;6.60;99.90;;;;;;5039797;28;20188;-81
2021/04/16 06:54:09;;;;;;;8.90;8.10;;;6.70;99.90;;;;;;5046514;28;20244;-80
2021/04/16 06:56:42;;;;;;;9.20;7.75;;;6.90;99.90;;;;;;5040084;28;20196;-81
2021/04/16 06:59:27;;;;;;;10.05;9.15;;;6.90;99.90;;;;;;5045768;28;20224;-81
2021/04/16 07:02:00;;;;;;;10.02;9.02;;;6.90;99.90;;;;;;5045766;28;20224;-82
2021/04/16 07:04:53;;;;;;;10.50;9.50;;;7.00;99.90;;;;;;5038558;28;20192;-80
2021/04/16 07:07:41;;;;;;;12.15;9.18;;;7.10;99.90;;;;;;5042643;28;20262;-81
2021/04/16 07:10:31;;;;;;;10.35;9.25;;;7.20;99.90;;;;;;5035916;28;20217;-81
2021/04/16 07:12:59;;;;;;;9.45;8.55;;;7.20;99.90;;;;;;5037513;28;20184;-81
2021/04/16 07:15:44;;;;;;;9.23;8.43;;;7.20;99.90;;;;;;5047077;28;20259;-81
2021/04/16 07:18:28;;;;;;;10.37;9.27;;;7.20;99.90;;;;;;5028993;28;20583;-81
2021/04/16 07:20:54;;;;;;;9.90;8.70;;;7.40;99.90;;;;;;5035075;28;20429;-80
2021/04/16 07:23:21;;;;;;;9.68;8.40;;;7.50;99.90;;;;;;5020569;28;20754;-81
2021/04/16 07:26:03;;;;;;;10.60;9.50;;;7.50;99.90;;;;;;5031813;28;20181;-82
2021/04/16 07:37:10;;;;;;;9.77;8.73;;;7.80;99.90;;;;;;5038457;28;20417;-81
2021/04/16 07:39:44;;;;;;;12.10;9.20;;;7.60;99.20;;;;;;5033865;28;20188;-82
2021/04/16 07:42:12;;;;;;;10.45;8.27;;;7.80;99.40;;;;;;5030574;28;20457;-81
2021/04/16 07:45:08;;;;;;;8.40;7.60;;;7.90;99.20;;;;;;5022336;28;20578;-82
2021/04/16 07:47:35;;;;;;;8.53;7.73;;;8.00;98.80;;;;;;5027565;28;20462;-82
2021/04/16 07:50:06;;;;;;;8.90;7.38;;;8.00;97.10;;;;;;5029547;28;20545;-81
2021/04/16 07:52:46;;;;;;;9.60;8.70;;;8.00;96.70;;;;;;5032888;28;20671;-81
2021/04/16 07:55:18;;;;;;;8.53;7.73;;;8.10;97.00;;;;;;5033807;28;21160;-81
2021/04/16 07:58:19;;;;;;;9.07;8.23;;;8.20;97.60;;;;;;5033932;28;20817;-81
2021/04/16 08:00:46;;;;;;;9.80;8.90;;;8.30;96.80;;;;;;5030801;28;20481;-80
2021/04/16 08:03:24;;;;;;;9.23;8.40;;;8.40;96.70;;;;;;5031491;28;20506;-79
2021/04/16 08:05:52;;;;;;;9.67;8.70;;;8.50;96.70;;;;;;5021946;28;20519;-78
2021/04/16 08:08:17;;;;;;;11.70;8.07;;;8.60;96.90;;;;;;5020439;28;20856;-79
2021/04/16 08:10:51;;;;;;;13.77;8.40;;;8.60;96.50;;;;;;5025158;28;20561;-79
2021/04/16 08:13:22;;;;;;;9.50;8.60;;;8.80;96.30;;;;;;5026726;28;20457;-80
2021/04/16 08:15:49;;;;;;;15.93;8.83;;;8.80;95.10;;;;;;5034144;28;20426;-79
2021/04/16 08:18:31;;;;;;;9.97;7.70;;;8.90;94.60;;;;;;5025658;28;20512;-78
2021/04/16 08:21:18;;;;;;;8.30;7.50;;;9.00;94.60;;;;;;5023856;28;20445;-83
2021/04/16 08:23:53;;;;;;;8.93;7.60;;;9.00;94.70;;;;;;5028289;28;20430;-81
2021/04/16 08:26:23;;;;;;;8.07;7.27;;;9.10;93.20;;;;;;5031067;28;20449;-82
2021/04/16 08:29:15;;;;;;;8.37;7.50;;;9.10;92.90;;;;;;5024734;28;20441;-83
2021/04/16 08:31:50;;;;;;;9.50;7.83;;;9.30;92.20;;;;;;5032266;28;20458;-81
2021/04/16 08:34:30;;;;;;;7.53;6.93;;;9.40;92.10;;;;;;5024833;28;20871;-80
2021/04/16 08:36:58;;;;;;;8.57;7.90;;;9.50;90.70;;;;;;5030733;28;20461;-81
2021/04/16 08:39:41;;;;;;;7.70;7.10;;;9.70;91.20;;;;;;5027800;28;20430;-81
2021/04/16 08:42:23;;;;;;;7.70;7.10;;;9.80;90.30;;;;;;5022931;28;20427;-82
2021/04/16 08:44:54;;;;;;;7.60;6.90;;;9.90;89.50;;;;;;5031848;28;20427;-78
2021/04/16 08:47:51;;;;;;;9.07;6.60;;;10.00;86.50;;;;;;5019700;28;20830;-78
2021/04/16 08:50:22;;;;;;;7.40;6.10;;;9.90;86.10;;;;;;5028866;28;20877;-82
2021/04/16 08:52:54;;;;;;;6.90;6.40;;;10.00;85.20;;;;;;5021730;28;20436;-82
2021/04/16 08:55:26;;;;;;;7.20;6.50;;;10.00;86.20;;;;;;5024261;28;20427;-83
2021/04/16 08:58:08;;;;;;;8.30;7.63;;;9.80;87.00;;;;;;5027763;28;20510;-83
2021/04/16 09:00:39;;;;;;;8.23;6.40;;;9.90;86.00;;;;;;5025379;28;20444;-82
2021/04/16 09:03:21;;;;;;;9.20;8.40;;;10.10;86.20;;;;;;5017890;28;20474;-82
2021/04/16 09:06:04;;;;;;;7.27;6.43;;;10.20;84.70;;;;;;5029112;28;20431;-82
2021/04/16 09:08:41;;;;;;;9.03;8.17;;;10.30;84.60;;;;;;5021101;28;20951;-81
2021/04/16 09:11:10;;;;;;;10.23;9.43;;;10.30;82.70;;;;;;5020454;28;20463;-82
2021/04/16 09:13:39;;;;;;;8.30;7.70;;;10.30;83.30;;;;;;5026843;28;20454;-84
2021/04/16 09:16:15;;;;;;;8.70;8.10;;;10.40;84.30;;;;;;5031186;28;20497;-83
2021/04/16 09:18:46;;;;;;;9.90;7.70;;;10.60;82.20;;;;;;5021752;28;20423;-83
2021/04/16 09:21:25;;;;;;;8.10;7.37;;;10.50;82.10;;;;;;5031403;28;20534;-83
2021/04/16 09:23:55;;;;;;;7.57;6.97;;;10.70;82.10;;;;;;5021225;28;20451;-81
2021/04/16 09:26:50;;;;;;;6.30;5.80;;;10.80;79.60;;;;;;5030485;28;20439;-83
2021/04/16 09:29:28;;;;;;;6.53;6.03;;;10.70;77.50;;;;;;5023795;28;20915;-83
2021/04/16 09:32:04;;;;;;;5.67;5.27;;;10.80;77.30;;;;;;5031582;28;20534;-83
2021/04/16 09:35:00;;;;;;;4.93;4.63;;;10.90;75.50;;;;;;5028120;28;20851;-84
2021/04/16 09:37:45;;;;;;;6.10;5.53;;;11.00;75.90;;;;;;5021181;28;20436;-86
2021/04/16 09:40:17;;;;;;;6.00;5.60;;;11.20;76.60;;;;;;5007629;28;20456;-85
2021/04/16 09:42:49;;;;;;;6.53;6.03;;;11.60;72.30;;;;;;5032894;28;20927;-83
2021/04/16 09:45:31;;;;;;;5.87;5.50;;;11.90;72.90;;;;;;5022885;28;20827;-83
2021/04/16 09:48:04;;;;;;;6.30;5.80;;;12.50;72.10;;;;;;5018243;28;20791;-83
2021/04/16 09:50:39;;;;;;;6.07;5.67;;;12.70;67.60;;;;;;5028447;28;20487;-83
2021/04/16 09:53:17;;;;;;;6.90;6.20;;;12.90;67.10;;;;;;5022018;28;20426;-82
2021/04/16 09:56:01;;;;;;;6.20;5.80;;;13.10;67.20;;;;;;5016889;28;20829;-81
2021/04/16 09:58:30;;;;;;;6.20;5.70;;;13.00;63.90;;;;;;5016846;28;20448;-79
2021/04/16 10:00:55;;;;;;;7.07;6.33;;;12.90;62.10;;;;;;5022259;28;20432;-80
2021/04/16 10:03:33;;;;;;;7.43;6.93;;;12.80;63.90;;;;;;5017260;28;20515;-82
2021/04/16 10:06:29;;;;;;;5.33;5.03;;;12.70;63.80;;;;;;5017734;28;20424;-80
2021/04/16 10:09:16;;;;;;;6.63;6.13;;;12.60;62.90;;;;;;5024273;28;20456;-80
2021/04/16 10:11:58;;;;;;;6.30;5.90;;;12.90;64.70;;;;;;5028974;28;20503;-80
2021/04/16 10:14:24;;;;;;;5.70;5.30;;;12.80;59.50;;;;;;5020678;28;20431;-81
2021/04/16 10:16:59;;;;;;;6.27;5.83;;;12.80;61.90;;;;;;5013826;28;20774;-80
2021/04/16 10:19:31;;;;;;;6.57;6.23;;;12.90;59.10;;;;;;5027379;28;20455;-79
2021/04/16 10:22:20;;;;;;;5.80;5.40;;;12.90;60.30;;;;;;5026012;28;20433;-79
2021/04/16 10:45:45;;;;;;;6.40;6.00;;;13.90;55.70;;;;;;5020220;28;20842;-79
2021/04/16 12:40:29;;;;;;;6.67;6.17;;;15.60;47.20;;;;;;5089660;27;20540;-72
2021/04/16 12:43:06;;;;;;;5.43;5.13;;;16.00;47.30;;;;;;5068658;22;20588;-75
2021/04/16 12:45:55;;;;;;;6.30;5.90;;;16.10;46.50;;;;;;5110424;27;20563;-73
2021/04/16 12:48:32;;;;;;;7.93;6.50;;;16.60;48.10;;;;;;5097885;22;21138;-76
2021/04/16 12:51:09;;;;;;;6.70;6.20;;;16.90;45.10;;;;;;5071603;28;20856;-75
2021/04/16 12:53:47;;;;;;;10.90;6.20;;;16.90;43.80;;;;;;5055679;22;20558;-73
2021/04/16 12:56:34;;;;;;;6.10;5.70;;;16.70;43.90;;;;;;5079369;28;20549;-73
2021/04/16 12:59:16;;;;;;;7.33;6.83;;;16.70;45.40;;;;;;5075080;28;20562;-75
2021/04/16 13:01:56;;;;;;;6.47;5.97;;;16.90;44.80;;;;;;5091580;28;20529;-75
2021/04/16 13:04:39;;;;;;;6.27;5.87;;;17.30;45.10;;;;;;5107651;27;20525;-75
2021/04/16 13:07:18;;;;;;;8.10;7.50;;;17.30;43.70;;;;;;5086714;27;20574;-75
2021/04/16 13:09:55;;;;;;;7.50;7.10;;;17.40;44.90;;;;;;5116805;27;20517;-73
2021/04/16 13:12:34;;;;;;;7.43;6.83;;;17.50;43.50;;;;;;5067128;28;20511;-74
2021/04/16 13:15:15;;;;;;;8.03;7.63;;;17.20;43.40;;;;;;5055568;28;20532;-75
2021/04/16 13:17:58;;;;;;;7.50;6.83;;;17.20;43.30;;;;;;5075683;28;20520;-74
2021/04/16 13:20:36;;;;;;;8.93;8.10;;;16.80;43.70;;;;;;5086305;27;20542;-74
2021/04/16 13:23:14;;;;;;;7.60;7.00;;;17.20;45.10;;;;;;5037956;28;20529;-75
2021/04/16 13:25:53;;;;;;;7.63;6.97;;;17.60;43.40;;;;;;5107805;27;20563;-74
2021/04/16 13:28:33;;;;;;;6.97;6.47;;;17.90;43.70;;;;;;5075445;28;20557;-75
2021/04/16 13:31:11;;;;;;;8.00;7.57;;;18.10;43.70;;;;;;5079864;28;21090;-75
2021/04/16 13:33:52;;;;;;;8.50;7.80;;;18.10;42.30;;;;;;5128686;27;20500;-75
2021/04/16 13:36:33;;;;;;;7.00;6.50;;;17.70;43.30;;;;;;5155838;27;20276;-74
2021/04/16 13:39:09;;;;;;;7.50;7.10;;;17.00;43.00;;;;;;5092854;27;884732;-73
2021/04/16 13:41:47;;;;;;;8.27;7.73;;;16.50;43.40;;;;;;5074928;27;20932;-75
2021/04/16 13:44:26;;;;;;;8.03;7.33;;;16.30;44.20;;;;;;5099373;27;20288;-73
2021/04/16 13:47:05;;;;;;;8.83;8.27;;;16.30;44.70;;;;;;5110750;27;20285;-75
2021/04/16 13:49:45;;;;;;;7.43;6.97;;;16.70;43.00;;;;;;5117530;27;20309;-73
2021/04/16 13:53:06;;;;;;;6.20;5.90;;;17.10;44.70;;;;;;5034735;28;20545;-75
2021/04/16 13:55:57;;;;;;;;;;;;;;;;;;;;;
2021/04/16 13:58:38;;;;;;;6.60;6.30;;;17.10;42.90;;;;;;5104893;27;21006;-75
2021/04/16 14:01:16;;;;;;;7.57;7.07;;;17.40;43.10;;;;;;5113385;27;20737;-73
2021/04/16 14:04:06;;;;;;;8.60;8.00;;;17.60;42.70;;;;;;5105055;27;20297;-75
2021/04/16 14:06:57;;;;;;;7.90;7.40;;;17.50;42.10;;;;;;5112076;27;20526;-74
2021/04/16 14:09:25;;;;;;;7.50;7.07;;;17.50;42.30;;;;;;5120404;28;20510;-74
2021/04/16 14:11:55;;;;;;;11.43;7.77;;;17.40;43.00;;;;;;5122416;28;20511;-75
2021/04/16 14:14:27;;;;;;;8.13;7.63;;;17.10;44.70;;;;;;5103321;28;20665;-76
2021/04/16 14:17:03;;;;;;;7.17;6.67;;;16.60;42.80;;;;;;5095419;28;20450;-74
2021/04/16 14:19:43;;;;;;;7.23;6.83;;;16.10;43.10;;;;;;5092708;28;20446;-75
2021/04/16 14:22:13;;;;;;;7.60;7.10;;;15.90;43.10;;;;;;5090854;28;20873;-75
2021/04/16 14:24:42;;;;;;;8.13;7.43;;;15.80;44.70;;;;;;5092218;28;20481;-74
2021/04/16 14:27:10;;;;;;;7.57;7.10;;;16.10;44.60;;;;;;5088912;28;21359;-74
2021/04/16 14:29:37;;;;;;;7.00;6.50;;;16.60;44.50;;;;;;5087034;28;20432;-75
2021/04/16 14:32:03;;;;;;;7.50;7.10;;;17.10;42.50;;;;;;5062040;28;20439;-74
2021/04/16 14:34:33;;;;;;;7.40;6.83;;;17.60;43.00;;;;;;5101774;28;20570;-74
2021/04/16 14:37:00;;;;;;;8.37;7.40;;;18.60;41.80;;;;;;5085325;28;20469;-75
2021/04/16 14:39:27;;;;;;;6.70;6.30;;;19.30;39.30;;;;;;5094687;28;20429;-75
2021/04/16 14:42:00;;;;;;;6.20;5.70;;;19.20;39.60;;;;;;5094735;28;20436;-74
2021/04/16 14:44:30;;;;;;;7.33;6.73;;;17.90;38.50;;;;;;5093295;28;20957;-75
2021/04/16 14:46:58;;;;;;;8.23;7.33;;;17.30;40.40;;;;;;5085872;28;20435;-74
2021/04/16 14:49:32;;;;;;;7.27;6.87;;;16.60;41.10;;;;;;5097110;28;20430;-74
2021/04/16 14:52:02;;;;;;;6.30;5.67;;;16.40;42.20;;;;;;5095870;28;20447;-74
2021/04/16 14:54:45;;;;;;;7.73;7.23;;;16.60;42.40;;;;;;5105133;28;20466;-74
2021/04/16 14:57:35;;;;;;;5.87;5.57;;;17.00;41.90;;;;;;5089291;28;20457;-74
2021/04/16 15:00:19;;;;;;;6.63;6.03;;;17.50;41.10;;;;;;5084888;28;21580;-75
2021/04/16 15:02:45;;;;;;;6.90;6.50;;;18.00;40.10;;;;;;5068678;28;20507;-74
2021/04/16 15:05:14;;;;;;;7.00;6.60;;;17.60;40.50;;;;;;5085623;28;20526;-75
2021/04/16 15:07:47;;;;;;;7.70;6.93;;;17.40;41.60;;;;;;5084321;28;20485;-76
2021/04/16 15:10:41;;;;;;;7.40;7.00;;;17.20;41.90;;;;;;5101780;28;20431;-76
2021/04/16 15:13:12;;;;;;;6.60;6.10;;;16.90;42.20;;;;;;5084852;28;20452;-76
2021/04/16 15:15:46;;;;;;;8.80;7.90;;;16.90;42.70;;;;;;5095928;28;21089;-77
2021/04/16 15:18:16;;;;;;;8.50;7.90;;;17.00;42.80;;;;;;5085325;28;20994;-77
2021/04/16 15:20:43;;;;;;;7.77;7.27;;;17.50;41.40;;;;;;5082493;28;20783;-77
2021/04/16 15:23:12;;;;;;;8.07;7.57;;;18.20;41.80;;;;;;5076971;28;20476;-76
2021/04/16 15:25:44;;;;;;;8.30;7.90;;;19.00;40.60;;;;;;5066861;28;20481;-77
2021/04/16 15:28:23;;;;;;;10.00;7.70;;;19.70;40.20;;;;;;5086216;28;20437;-77
2021/04/16 15:30:59;;;;;;;7.90;7.30;;;19.70;38.70;;;;;;5071194;28;20434;-77
2021/04/16 15:48:15;;;;;;;7.80;7.30;;;20.20;36.50;;;;;;5075893;28;20773;-77
2021/04/16 15:50:44;;;;;;;8.00;7.27;;;20.10;36.60;;;;;;5087090;28;20833;-77
2021/04/16 15:53:12;;;;;;;8.53;7.63;;;19.40;36.70;;;;;;5080328;28;20495;-77
2021/04/16 15:55:41;;;;;;;7.00;6.70;;;18.60;37.00;;;;;;5075621;28;20484;-77
2021/04/16 15:58:14;;;;;;;8.13;7.43;;;18.20;37.80;;;;;;5080956;28;20528;-76
2021/04/16 16:00:45;;;;;;;7.00;6.40;;;18.00;39.40;;;;;;5075016;28;20468;-77
2021/04/16 16:03:14;;;;;;;8.30;7.80;;;18.00;38.90;;;;;;5072907;28;20869;-76
2021/04/16 16:05:42;;;;;;;6.70;6.30;;;17.80;39.00;;;;;;5082431;28;20472;-76
2021/04/16 16:08:08;;;;;;;7.70;7.03;;;17.70;39.10;;;;;;5080568;28;20443;-76
2021/04/16 16:10:40;;;;;;;7.57;7.07;;;17.20;39.80;;;;;;5075587;28;20425;-77
2021/04/16 16:13:17;;;;;;;6.00;5.60;;;16.70;41.10;;;;;;5079592;28;20450;-76
2021/04/16 16:15:46;;;;;;;6.87;6.23;;;16.80;42.80;;;;;;5105483;28;20456;-77
2021/04/16 16:18:16;;;;;;;6.83;6.37;;;17.30;42.80;;;;;;5083586;28;20516;-77
2021/04/16 16:20:47;;;;;;;7.10;6.70;;;17.20;42.00;;;;;;5075347;28;20437;-77
2021/04/16 16:23:16;;;;;;;7.33;6.73;;;17.10;42.50;;;;;;5054051;28;20457;-77
2021/04/16 16:25:47;;;;;;;7.53;7.03;;;16.80;42.70;;;;;;5070781;28;20840;-77
2021/04/16 16:28:26;;;;;;;8.47;7.67;;;16.50;42.50;;;;;;5084200;28;20451;-77
2021/04/16 16:30:56;;;;;;;6.50;6.00;;;16.00;43.90;;;;;;5073494;28;20920;-77
2021/04/16 16:33:23;;;;;;;6.60;6.00;;;15.50;44.50;;;;;;5085160;28;20536;-76